sensor_id;sensor_type;location;lat;lon;timestamp;P1;durP1;ratioP1;P2;durP2;ratioP2
61344;SDS011;47216;42.656;23.232;2023-05-29T00:01:39;3.73;;;2.30;;
61344;SDS011;47216;42.656;23.232;2023-05-29T00:04:06;3.23;;;2.57;;
61344;SDS011;47216;42.656;23.232;2023-05-29T00:06:32;3.13;;;2.60;;
61344;SDS011;47216;42.656;23.232;2023-05-29T00:09:01;5.93;;;2.27;;
61344;SDS011;47216;42.656;23.232;2023-05-29T00:11:28;3.23;;;2.20;;
61344;SDS011;47216;42.656;23.232;2023-05-29T00:13:56;2.30;;;2.03;;
61344;SDS011;47216;42.656;23.232;2023-05-29T00:16:23;4.37;;;2.80;;
61344;SDS011;47216;42.656;23.232;2023-05-29T00:18:50;3.90;;;2.70;;
61344;SDS011;47216;42.656;23.232;2023-05-29T00:21:17;3.23;;;2.57;;
61344;SDS011;47216;42.656;23.232;2023-05-29T00:23:44;3.53;;;2.43;;
61344;SDS011;47216;42.656;23.232;2023-05-29T00:26:10;11.60;;;2.60;;
61344;SDS011;47216;42.656;23.232;2023-05-29T00:28:37;4.63;;;2.73;;
61344;SDS011;47216;42.656;23.232;2023-05-29T00:31:06;6.93;;;2.83;;
61344;SDS011;47216;42.656;23.232;2023-05-29T00:33:33;6.93;;;3.00;;
61344;SDS011;47216;42.656;23.232;2023-05-29T00:35:59;11.17;;;2.50;;
61344;SDS011;47216;42.656;23.232;2023-05-29T00:38:26;4.43;;;2.63;;
61344;SDS011;47216;42.656;23.232;2023-05-29T00:40:53;5.77;;;4.53;;
61344;SDS011;47216;42.656;23.232;2023-05-29T00:43:20;5.87;;;3.13;;
61344;SDS011;47216;42.656;23.232;2023-05-29T00:45:46;3.17;;;2.53;;
61344;SDS011;47216;42.656;23.232;2023-05-29T00:48:15;6.83;;;2.47;;
61344;SDS011;47216;42.656;23.232;2023-05-29T00:50:43;6.27;;;2.60;;
61344;SDS011;47216;42.656;23.232;2023-05-29T00:53:10;3.67;;;2.63;;
61344;SDS011;47216;42.656;23.232;2023-05-29T00:55:37;6.57;;;2.80;;
61344;SDS011;47216;42.656;23.232;2023-05-29T00:58:04;3.00;;;2.40;;
61344;SDS011;47216;42.656;23.232;2023-05-29T01:00:32;5.50;;;2.77;;
61344;SDS011;47216;42.656;23.232;2023-05-29T01:02:59;4.77;;;2.63;;
61344;SDS011;47216;42.656;23.232;2023-05-29T01:05:31;4.23;;;2.73;;
61344;SDS011;47216;42.656;23.232;2023-05-29T01:08:00;8.47;;;2.80;;
61344;SDS011;47216;42.656;23.232;2023-05-29T01:10:27;3.77;;;2.40;;
61344;SDS011;47216;42.656;23.232;2023-05-29T01:12:56;4.33;;;2.87;;
61344;SDS011;47216;42.656;23.232;2023-05-29T01:15:28;4.17;;;2.40;;
61344;SDS011;47216;42.656;23.232;2023-05-29T01:18:12;4.07;;;2.90;;
61344;SDS011;47216;42.656;23.232;2023-05-29T01:20:48;3.37;;;2.60;;
61344;SDS011;47216;42.656;23.232;2023-05-29T01:29:29;4.30;;;2.43;;
61344;SDS011;47216;42.656;23.232;2023-05-29T01:31:58;2.60;;;2.40;;
61344;SDS011;47216;42.656;23.232;2023-05-29T01:34:26;5.97;;;2.30;;
61344;SDS011;47216;42.656;23.232;2023-05-29T01:36:53;5.67;;;2.50;;
61344;SDS011;47216;42.656;23.232;2023-05-29T01:39:20;3.13;;;2.50;;
61344;SDS011;47216;42.656;23.232;2023-05-29T01:41:47;3.50;;;2.80;;
61344;SDS011;47216;42.656;23.232;2023-05-29T01:44:16;3.93;;;2.63;;
61344;SDS011;47216;42.656;23.232;2023-05-29T01:46:44;6.13;;;2.43;;
61344;SDS011;47216;42.656;23.232;2023-05-29T01:49:11;6.60;;;2.70;;
61344;SDS011;47216;42.656;23.232;2023-05-29T01:51:39;4.47;;;2.47;;
61344;SDS011;47216;42.656;23.232;2023-05-29T01:54:06;3.63;;;2.70;;
61344;SDS011;47216;42.656;23.232;2023-05-29T01:56:34;6.10;;;2.60;;
61344;SDS011;47216;42.656;23.232;2023-05-29T01:59:03;4.80;;;2.90;;
61344;SDS011;47216;42.656;23.232;2023-05-29T02:01:32;3.63;;;2.63;;
61344;SDS011;47216;42.656;23.232;2023-05-29T02:03:58;4.87;;;2.50;;
61344;SDS011;47216;42.656;23.232;2023-05-29T02:06:25;2.80;;;2.50;;
61344;SDS011;47216;42.656;23.232;2023-05-29T02:08:52;5.33;;;2.70;;
61344;SDS011;47216;42.656;23.232;2023-05-29T02:11:19;7.70;;;2.67;;
61344;SDS011;47216;42.656;23.232;2023-05-29T02:13:46;4.87;;;2.70;;
61344;SDS011;47216;42.656;23.232;2023-05-29T02:16:13;2.80;;;2.50;;
61344;SDS011;47216;42.656;23.232;2023-05-29T02:18:41;2.80;;;2.50;;
61344;SDS011;47216;42.656;23.232;2023-05-29T02:21:08;2.87;;;2.13;;
61344;SDS011;47216;42.656;23.232;2023-05-29T02:23:35;5.90;;;2.87;;
61344;SDS011;47216;42.656;23.232;2023-05-29T02:26:02;3.07;;;2.40;;
61344;SDS011;47216;42.656;23.232;2023-05-29T02:28:28;4.40;;;2.47;;
61344;SDS011;47216;42.656;23.232;2023-05-29T02:30:55;5.97;;;2.40;;
61344;SDS011;47216;42.656;23.232;2023-05-29T02:33:22;3.07;;;2.60;;
61344;SDS011;47216;42.656;23.232;2023-05-29T02:35:50;3.53;;;2.43;;
61344;SDS011;47216;42.656;23.232;2023-05-29T02:38:17;3.00;;;2.57;;
61344;SDS011;47216;42.656;23.232;2023-05-29T02:40:44;3.57;;;2.80;;
61344;SDS011;47216;42.656;23.232;2023-05-29T02:43:12;4.70;;;2.90;;
61344;SDS011;47216;42.656;23.232;2023-05-29T02:45:39;6.83;;;3.10;;
61344;SDS011;47216;42.656;23.232;2023-05-29T02:48:06;4.10;;;2.80;;
61344;SDS011;47216;42.656;23.232;2023-05-29T02:50:33;3.50;;;3.03;;
61344;SDS011;47216;42.656;23.232;2023-05-29T02:53:01;4.07;;;2.83;;
61344;SDS011;47216;42.656;23.232;2023-05-29T02:55:28;5.83;;;3.60;;
61344;SDS011;47216;42.656;23.232;2023-05-29T02:57:57;4.50;;;3.37;;
61344;SDS011;47216;42.656;23.232;2023-05-29T03:00:25;10.13;;;3.43;;
61344;SDS011;47216;42.656;23.232;2023-05-29T03:02:53;5.57;;;3.50;;
61344;SDS011;47216;42.656;23.232;2023-05-29T03:05:20;4.33;;;3.40;;
61344;SDS011;47216;42.656;23.232;2023-05-29T03:07:46;5.97;;;3.10;;
61344;SDS011;47216;42.656;23.232;2023-05-29T03:10:15;5.57;;;3.53;;
61344;SDS011;47216;42.656;23.232;2023-05-29T03:12:42;4.93;;;3.23;;
61344;SDS011;47216;42.656;23.232;2023-05-29T03:15:09;5.10;;;3.73;;
61344;SDS011;47216;42.656;23.232;2023-05-29T03:17:36;7.10;;;3.80;;
61344;SDS011;47216;42.656;23.232;2023-05-29T03:20:03;5.93;;;3.70;;
61344;SDS011;47216;42.656;23.232;2023-05-29T03:22:33;4.63;;;3.67;;
61344;SDS011;47216;42.656;23.232;2023-05-29T03:25:01;7.33;;;3.97;;
61344;SDS011;47216;42.656;23.232;2023-05-29T03:27:30;5.67;;;4.03;;
61344;SDS011;47216;42.656;23.232;2023-05-29T03:29:58;7.80;;;4.27;;
61344;SDS011;47216;42.656;23.232;2023-05-29T03:32:25;8.73;;;4.53;;
61344;SDS011;47216;42.656;23.232;2023-05-29T03:34:51;5.73;;;3.50;;
61344;SDS011;47216;42.656;23.232;2023-05-29T03:37:18;5.17;;;3.50;;
61344;SDS011;47216;42.656;23.232;2023-05-29T03:39:45;4.23;;;3.70;;
61344;SDS011;47216;42.656;23.232;2023-05-29T03:42:12;8.80;;;4.33;;
61344;SDS011;47216;42.656;23.232;2023-05-29T03:44:41;5.80;;;3.57;;
61344;SDS011;47216;42.656;23.232;2023-05-29T03:47:07;5.20;;;3.83;;
61344;SDS011;47216;42.656;23.232;2023-05-29T03:49:35;4.83;;;4.13;;
61344;SDS011;47216;42.656;23.232;2023-05-29T03:52:01;8.47;;;4.63;;
61344;SDS011;47216;42.656;23.232;2023-05-29T03:54:28;6.87;;;4.33;;
61344;SDS011;47216;42.656;23.232;2023-05-29T03:56:55;7.77;;;4.40;;
61344;SDS011;47216;42.656;23.232;2023-05-29T03:59:22;4.37;;;3.67;;
61344;SDS011;47216;42.656;23.232;2023-05-29T04:01:50;5.37;;;4.10;;
61344;SDS011;47216;42.656;23.232;2023-05-29T04:04:17;8.47;;;3.60;;
61344;SDS011;47216;42.656;23.232;2023-05-29T04:06:43;9.33;;;4.37;;
61344;SDS011;47216;42.656;23.232;2023-05-29T04:09:10;4.50;;;3.90;;
61344;SDS011;47216;42.656;23.232;2023-05-29T04:11:37;6.73;;;3.93;;
61344;SDS011;47216;42.656;23.232;2023-05-29T04:14:04;6.90;;;4.17;;
61344;SDS011;47216;42.656;23.232;2023-05-29T04:16:31;6.07;;;4.17;;
61344;SDS011;47216;42.656;23.232;2023-05-29T04:18:59;9.70;;;3.70;;
61344;SDS011;47216;42.656;23.232;2023-05-29T04:21:26;6.63;;;3.73;;
61344;SDS011;47216;42.656;23.232;2023-05-29T04:23:53;6.37;;;4.03;;
61344;SDS011;47216;42.656;23.232;2023-05-29T04:26:19;6.33;;;4.00;;
61344;SDS011;47216;42.656;23.232;2023-05-29T04:28:50;5.73;;;4.70;;
61344;SDS011;47216;42.656;23.232;2023-05-29T04:31:17;6.03;;;3.43;;
61344;SDS011;47216;42.656;23.232;2023-05-29T04:33:47;6.30;;;2.67;;
61344;SDS011;47216;42.656;23.232;2023-05-29T04:36:15;3.93;;;2.63;;
61344;SDS011;47216;42.656;23.232;2023-05-29T04:38:42;8.67;;;3.23;;
61344;SDS011;47216;42.656;23.232;2023-05-29T04:41:10;3.53;;;3.00;;
61344;SDS011;47216;42.656;23.232;2023-05-29T04:43:37;8.47;;;3.57;;
61344;SDS011;47216;42.656;23.232;2023-05-29T04:46:05;5.07;;;3.37;;
61344;SDS011;47216;42.656;23.232;2023-05-29T04:48:32;9.67;;;3.60;;
61344;SDS011;47216;42.656;23.232;2023-05-29T04:50:59;6.13;;;3.47;;
61344;SDS011;47216;42.656;23.232;2023-05-29T04:53:27;7.60;;;4.30;;
61344;SDS011;47216;42.656;23.232;2023-05-29T04:55:56;16.53;;;5.13;;
61344;SDS011;47216;42.656;23.232;2023-05-29T04:58:25;5.53;;;3.83;;
61344;SDS011;47216;42.656;23.232;2023-05-29T05:00:52;5.47;;;3.73;;
61344;SDS011;47216;42.656;23.232;2023-05-29T05:03:22;5.33;;;4.50;;
61344;SDS011;47216;42.656;23.232;2023-05-29T05:05:49;6.03;;;4.57;;
61344;SDS011;47216;42.656;23.232;2023-05-29T05:08:16;5.57;;;3.73;;
61344;SDS011;47216;42.656;23.232;2023-05-29T05:10:45;9.20;;;3.93;;
61344;SDS011;47216;42.656;23.232;2023-05-29T05:13:11;6.57;;;3.53;;
61344;SDS011;47216;42.656;23.232;2023-05-29T05:15:38;10.73;;;4.60;;
61344;SDS011;47216;42.656;23.232;2023-05-29T05:18:05;8.03;;;5.50;;
61344;SDS011;47216;42.656;23.232;2023-05-29T05:20:31;8.27;;;5.33;;
61344;SDS011;47216;42.656;23.232;2023-05-29T05:22:58;15.47;;;6.17;;
61344;SDS011;47216;42.656;23.232;2023-05-29T05:25:26;9.53;;;5.77;;
61344;SDS011;47216;42.656;23.232;2023-05-29T05:27:54;9.87;;;6.73;;
61344;SDS011;47216;42.656;23.232;2023-05-29T05:30:21;63.80;;;39.57;;
61344;SDS011;47216;42.656;23.232;2023-05-29T05:32:47;40.83;;;24.20;;
61344;SDS011;47216;42.656;23.232;2023-05-29T05:35:14;18.33;;;11.50;;
61344;SDS011;47216;42.656;23.232;2023-05-29T05:37:41;13.93;;;8.93;;
61344;SDS011;47216;42.656;23.232;2023-05-29T05:40:08;10.70;;;6.87;;
61344;SDS011;47216;42.656;23.232;2023-05-29T05:42:35;10.83;;;5.70;;
61344;SDS011;47216;42.656;23.232;2023-05-29T05:45:04;12.97;;;6.30;;
61344;SDS011;47216;42.656;23.232;2023-05-29T05:47:31;9.83;;;5.60;;
61344;SDS011;47216;42.656;23.232;2023-05-29T05:49:58;8.17;;;6.17;;
61344;SDS011;47216;42.656;23.232;2023-05-29T05:52:25;13.07;;;6.43;;
61344;SDS011;47216;42.656;23.232;2023-05-29T05:54:56;10.63;;;5.40;;
61344;SDS011;47216;42.656;23.232;2023-05-29T05:57:22;10.37;;;5.70;;
61344;SDS011;47216;42.656;23.232;2023-05-29T05:59:50;11.33;;;5.90;;
61344;SDS011;47216;42.656;23.232;2023-05-29T06:02:19;7.43;;;4.90;;
61344;SDS011;47216;42.656;23.232;2023-05-29T06:04:46;10.03;;;4.70;;
61344;SDS011;47216;42.656;23.232;2023-05-29T06:07:13;7.23;;;4.77;;
61344;SDS011;47216;42.656;23.232;2023-05-29T06:09:40;9.00;;;5.07;;
61344;SDS011;47216;42.656;23.232;2023-05-29T06:12:08;7.03;;;4.83;;
61344;SDS011;47216;42.656;23.232;2023-05-29T06:14:35;9.43;;;4.70;;
61344;SDS011;47216;42.656;23.232;2023-05-29T06:17:02;6.70;;;4.20;;
61344;SDS011;47216;42.656;23.232;2023-05-29T06:19:30;5.97;;;4.37;;
61344;SDS011;47216;42.656;23.232;2023-05-29T06:21:56;8.27;;;4.33;;
61344;SDS011;47216;42.656;23.232;2023-05-29T06:24:23;7.27;;;3.80;;
61344;SDS011;47216;42.656;23.232;2023-05-29T06:26:50;5.07;;;3.70;;
61344;SDS011;47216;42.656;23.232;2023-05-29T06:29:17;6.40;;;4.17;;
61344;SDS011;47216;42.656;23.232;2023-05-29T06:31:43;6.17;;;4.43;;
61344;SDS011;47216;42.656;23.232;2023-05-29T06:34:10;4.43;;;3.70;;
61344;SDS011;47216;42.656;23.232;2023-05-29T06:36:38;5.30;;;4.10;;
61344;SDS011;47216;42.656;23.232;2023-05-29T06:39:06;7.13;;;4.07;;
61344;SDS011;47216;42.656;23.232;2023-05-29T06:41:33;7.83;;;3.73;;
61344;SDS011;47216;42.656;23.232;2023-05-29T06:44:00;10.37;;;4.40;;
61344;SDS011;47216;42.656;23.232;2023-05-29T06:46:27;5.37;;;3.87;;
61344;SDS011;47216;42.656;23.232;2023-05-29T06:48:54;6.57;;;4.20;;
61344;SDS011;47216;42.656;23.232;2023-05-29T06:51:21;7.70;;;4.47;;
61344;SDS011;47216;42.656;23.232;2023-05-29T06:53:49;5.93;;;4.20;;
61344;SDS011;47216;42.656;23.232;2023-05-29T06:56:16;5.50;;;3.70;;
61344;SDS011;47216;42.656;23.232;2023-05-29T06:58:42;5.17;;;3.17;;
61344;SDS011;47216;42.656;23.232;2023-05-29T07:01:10;7.00;;;3.23;;
61344;SDS011;47216;42.656;23.232;2023-05-29T07:03:37;6.17;;;3.07;;
61344;SDS011;47216;42.656;23.232;2023-05-29T07:06:04;3.73;;;2.80;;
61344;SDS011;47216;42.656;23.232;2023-05-29T07:08:32;4.90;;;2.80;;
61344;SDS011;47216;42.656;23.232;2023-05-29T07:11:00;2.90;;;2.27;;
61344;SDS011;47216;42.656;23.232;2023-05-29T07:13:27;4.83;;;2.90;;
61344;SDS011;47216;42.656;23.232;2023-05-29T07:15:54;7.90;;;3.00;;
61344;SDS011;47216;42.656;23.232;2023-05-29T07:18:21;8.23;;;2.80;;
61344;SDS011;47216;42.656;23.232;2023-05-29T07:20:48;7.23;;;2.50;;
61344;SDS011;47216;42.656;23.232;2023-05-29T07:23:14;3.77;;;2.20;;
61344;SDS011;47216;42.656;23.232;2023-05-29T07:25:41;5.67;;;2.30;;
61344;SDS011;47216;42.656;23.232;2023-05-29T07:28:09;4.80;;;2.50;;
61344;SDS011;47216;42.656;23.232;2023-05-29T07:30:36;3.40;;;2.30;;
61344;SDS011;47216;42.656;23.232;2023-05-29T07:33:03;4.07;;;2.07;;
61344;SDS011;47216;42.656;23.232;2023-05-29T07:35:30;2.83;;;2.13;;
61344;SDS011;47216;42.656;23.232;2023-05-29T07:37:58;4.37;;;2.37;;
61344;SDS011;47216;42.656;23.232;2023-05-29T07:40:25;4.30;;;2.23;;
61344;SDS011;47216;42.656;23.232;2023-05-29T07:42:52;2.30;;;1.80;;
61344;SDS011;47216;42.656;23.232;2023-05-29T07:45:20;3.27;;;1.90;;
61344;SDS011;47216;42.656;23.232;2023-05-29T07:47:47;7.73;;;2.33;;
61344;SDS011;47216;42.656;23.232;2023-05-29T07:50:14;9.43;;;5.37;;
61344;SDS011;47216;42.656;23.232;2023-05-29T07:52:42;7.23;;;1.90;;
61344;SDS011;47216;42.656;23.232;2023-05-29T07:55:09;2.80;;;1.90;;
61344;SDS011;47216;42.656;23.232;2023-05-29T07:57:35;6.33;;;2.40;;
61344;SDS011;47216;42.656;23.232;2023-05-29T08:00:04;2.20;;;2.00;;
61344;SDS011;47216;42.656;23.232;2023-05-29T08:02:34;3.17;;;2.13;;
61344;SDS011;47216;42.656;23.232;2023-05-29T08:05:01;7.90;;;2.60;;
61344;SDS011;47216;42.656;23.232;2023-05-29T08:07:29;5.30;;;2.40;;
61344;SDS011;47216;42.656;23.232;2023-05-29T08:09:57;2.70;;;2.33;;
61344;SDS011;47216;42.656;23.232;2023-05-29T08:12:23;3.60;;;2.00;;
61344;SDS011;47216;42.656;23.232;2023-05-29T08:14:50;4.07;;;2.70;;
61344;SDS011;47216;42.656;23.232;2023-05-29T08:17:17;4.93;;;2.57;;
61344;SDS011;47216;42.656;23.232;2023-05-29T08:19:45;3.10;;;1.97;;
61344;SDS011;47216;42.656;23.232;2023-05-29T08:22:13;3.10;;;2.00;;
61344;SDS011;47216;42.656;23.232;2023-05-29T08:24:40;4.97;;;2.00;;
61344;SDS011;47216;42.656;23.232;2023-05-29T08:27:07;5.07;;;2.00;;
61344;SDS011;47216;42.656;23.232;2023-05-29T08:29:34;9.97;;;1.90;;
61344;SDS011;47216;42.656;23.232;2023-05-29T08:32:03;3.63;;;2.40;;
61344;SDS011;47216;42.656;23.232;2023-05-29T08:34:30;4.77;;;2.40;;
61344;SDS011;47216;42.656;23.232;2023-05-29T08:36:59;3.73;;;2.60;;
61344;SDS011;47216;42.656;23.232;2023-05-29T08:39:28;3.20;;;2.43;;
61344;SDS011;47216;42.656;23.232;2023-05-29T08:41:57;4.00;;;2.10;;
61344;SDS011;47216;42.656;23.232;2023-05-29T08:44:29;4.23;;;2.63;;
61344;SDS011;47216;42.656;23.232;2023-05-29T08:46:59;4.20;;;2.23;;
61344;SDS011;47216;42.656;23.232;2023-05-29T08:49:28;4.23;;;2.30;;
61344;SDS011;47216;42.656;23.232;2023-05-29T08:52:05;8.03;;;2.50;;
61344;SDS011;47216;42.656;23.232;2023-05-29T08:54:38;2.73;;;2.10;;
61344;SDS011;47216;42.656;23.232;2023-05-29T08:57:06;3.50;;;2.37;;
61344;SDS011;47216;42.656;23.232;2023-05-29T08:59:33;3.83;;;2.33;;
61344;SDS011;47216;42.656;23.232;2023-05-29T09:02:03;2.60;;;1.73;;
61344;SDS011;47216;42.656;23.232;2023-05-29T09:04:30;3.87;;;2.10;;
61344;SDS011;47216;42.656;23.232;2023-05-29T09:06:58;6.40;;;2.37;;
61344;SDS011;47216;42.656;23.232;2023-05-29T09:09:26;3.73;;;2.10;;
61344;SDS011;47216;42.656;23.232;2023-05-29T09:11:53;2.80;;;1.73;;
61344;SDS011;47216;42.656;23.232;2023-05-29T09:14:34;4.50;;;2.33;;
61344;SDS011;47216;42.656;23.232;2023-05-29T09:17:02;4.47;;;2.50;;
61344;SDS011;47216;42.656;23.232;2023-05-29T09:19:30;3.40;;;2.27;;
61344;SDS011;47216;42.656;23.232;2023-05-29T09:22:00;3.53;;;2.83;;
61344;SDS011;47216;42.656;23.232;2023-05-29T09:24:30;5.50;;;2.57;;
61344;SDS011;47216;42.656;23.232;2023-05-29T09:26:59;5.00;;;2.70;;
61344;SDS011;47216;42.656;23.232;2023-05-29T09:29:26;3.37;;;2.67;;
61344;SDS011;47216;42.656;23.232;2023-05-29T09:31:53;3.87;;;2.07;;
61344;SDS011;47216;42.656;23.232;2023-05-29T09:34:22;4.60;;;2.73;;
61344;SDS011;47216;42.656;23.232;2023-05-29T09:36:51;3.33;;;2.43;;
61344;SDS011;47216;42.656;23.232;2023-05-29T09:39:19;2.70;;;2.07;;
61344;SDS011;47216;42.656;23.232;2023-05-29T09:41:47;4.80;;;2.50;;
61344;SDS011;47216;42.656;23.232;2023-05-29T09:44:14;2.83;;;2.27;;
61344;SDS011;47216;42.656;23.232;2023-05-29T09:46:42;4.07;;;2.70;;
61344;SDS011;47216;42.656;23.232;2023-05-29T09:49:12;3.30;;;2.35;;
61344;SDS011;47216;42.656;23.232;2023-05-29T09:51:40;2.88;;;2.40;;
61344;SDS011;47216;42.656;23.232;2023-05-29T09:54:13;2.80;;;2.17;;
61344;SDS011;47216;42.656;23.232;2023-05-29T09:56:42;4.10;;;2.63;;
61344;SDS011;47216;42.656;23.232;2023-05-29T09:59:12;5.05;;;2.40;;
61344;SDS011;47216;42.656;23.232;2023-05-29T10:01:43;3.03;;;2.42;;
61344;SDS011;47216;42.656;23.232;2023-05-29T10:04:10;7.97;;;2.63;;
61344;SDS011;47216;42.656;23.232;2023-05-29T10:06:39;4.25;;;2.60;;
61344;SDS011;47216;42.656;23.232;2023-05-29T10:09:10;3.25;;;2.60;;
61344;SDS011;47216;42.656;23.232;2023-05-29T10:11:40;5.03;;;2.55;;
61344;SDS011;47216;42.656;23.232;2023-05-29T10:14:09;3.33;;;2.63;;
61344;SDS011;47216;42.656;23.232;2023-05-29T10:16:43;2.72;;;2.42;;
61344;SDS011;47216;42.656;23.232;2023-05-29T10:19:15;3.13;;;2.40;;
61344;SDS011;47216;42.656;23.232;2023-05-29T10:21:47;5.55;;;2.60;;
61344;SDS011;47216;42.656;23.232;2023-05-29T10:24:15;3.90;;;2.90;;
61344;SDS011;47216;42.656;23.232;2023-05-29T10:26:43;3.63;;;2.63;;
61344;SDS011;47216;42.656;23.232;2023-05-29T10:29:17;3.50;;;2.60;;
61344;SDS011;47216;42.656;23.232;2023-05-29T10:31:55;3.15;;;2.60;;
61344;SDS011;47216;42.656;23.232;2023-05-29T10:34:33;4.03;;;2.85;;
61344;SDS011;47216;42.656;23.232;2023-05-29T10:37:08;4.72;;;2.60;;
61344;SDS011;47216;42.656;23.232;2023-05-29T10:39:52;11.98;;;3.22;;
61344;SDS011;47216;42.656;23.232;2023-05-29T10:45:10;3.50;;;2.53;;
61344;SDS011;47216;42.656;23.232;2023-05-29T10:47:59;6.78;;;2.65;;
61344;SDS011;47216;42.656;23.232;2023-05-29T10:51:26;5.53;;;2.55;;
61344;SDS011;47216;42.656;23.232;2023-05-29T10:53:54;3.63;;;2.50;;
61344;SDS011;47216;42.656;23.232;2023-05-29T10:56:22;4.60;;;2.65;;
61344;SDS011;47216;42.656;23.232;2023-05-29T10:58:55;3.75;;;2.40;;
61344;SDS011;47216;42.656;23.232;2023-05-29T11:01:24;4.07;;;2.60;;
61344;SDS011;47216;42.656;23.232;2023-05-29T11:03:54;3.88;;;2.25;;
61344;SDS011;47216;42.656;23.232;2023-05-29T11:06:56;2.65;;;2.45;;
61344;SDS011;47216;42.656;23.232;2023-05-29T11:09:27;3.00;;;2.10;;
61344;SDS011;47216;42.656;23.232;2023-05-29T11:15:01;3.42;;;2.58;;
61344;SDS011;47216;42.656;23.232;2023-05-29T11:17:42;2.88;;;2.38;;
61344;SDS011;47216;42.656;23.232;2023-05-29T11:20:17;4.05;;;2.50;;
61344;SDS011;47216;42.656;23.232;2023-05-29T11:23:00;5.18;;;2.70;;
61344;SDS011;47216;42.656;23.232;2023-05-29T11:25:28;4.75;;;2.40;;
61344;SDS011;47216;42.656;23.232;2023-05-29T11:27:59;3.35;;;2.70;;
61344;SDS011;47216;42.656;23.232;2023-05-29T11:30:28;4.40;;;2.78;;
61344;SDS011;47216;42.656;23.232;2023-05-29T11:32:57;3.70;;;2.60;;
61344;SDS011;47216;42.656;23.232;2023-05-29T11:35:28;3.05;;;2.63;;
61344;SDS011;47216;42.656;23.232;2023-05-29T11:37:56;3.85;;;2.28;;
61344;SDS011;47216;42.656;23.232;2023-05-29T11:40:23;3.42;;;2.92;;
61344;SDS011;47216;42.656;23.232;2023-05-29T11:42:50;2.95;;;2.33;;
61344;SDS011;47216;42.656;23.232;2023-05-29T11:45:18;4.00;;;2.20;;
61344;SDS011;47216;42.656;23.232;2023-05-29T11:47:52;3.92;;;2.70;;
61344;SDS011;47216;42.656;23.232;2023-05-29T11:50:22;3.42;;;2.40;;
61344;SDS011;47216;42.656;23.232;2023-05-29T11:52:50;5.60;;;2.95;;
61344;SDS011;47216;42.656;23.232;2023-05-29T11:55:17;3.80;;;2.70;;
61344;SDS011;47216;42.656;23.232;2023-05-29T11:57:45;3.65;;;2.65;;
61344;SDS011;47216;42.656;23.232;2023-05-29T12:00:13;7.75;;;3.05;;
61344;SDS011;47216;42.656;23.232;2023-05-29T12:02:41;4.15;;;2.83;;
61344;SDS011;47216;42.656;23.232;2023-05-29T12:05:09;2.85;;;2.42;;
61344;SDS011;47216;42.656;23.232;2023-05-29T12:07:46;3.70;;;2.60;;
61344;SDS011;47216;42.656;23.232;2023-05-29T12:10:13;4.75;;;3.05;;
61344;SDS011;47216;42.656;23.232;2023-05-29T12:12:42;3.55;;;2.45;;
61344;SDS011;47216;42.656;23.232;2023-05-29T12:15:12;11.00;;;2.85;;
61344;SDS011;47216;42.656;23.232;2023-05-29T12:17:40;8.32;;;3.50;;
61344;SDS011;47216;42.656;23.232;2023-05-29T12:20:09;14.55;;;3.60;;
61344;SDS011;47216;42.656;23.232;2023-05-29T12:22:38;8.23;;;3.85;;
61344;SDS011;47216;42.656;23.232;2023-05-29T12:25:09;5.35;;;3.15;;
61344;SDS011;47216;42.656;23.232;2023-05-29T12:27:37;5.95;;;3.45;;
61344;SDS011;47216;42.656;23.232;2023-05-29T12:30:08;8.45;;;3.50;;
61344;SDS011;47216;42.656;23.232;2023-05-29T12:32:36;4.53;;;3.05;;
61344;SDS011;47216;42.656;23.232;2023-05-29T12:35:10;5.32;;;3.00;;
61344;SDS011;47216;42.656;23.232;2023-05-29T12:37:42;6.15;;;3.13;;
61344;SDS011;47216;42.656;23.232;2023-05-29T12:40:13;4.53;;;2.78;;
61344;SDS011;47216;42.656;23.232;2023-05-29T12:42:41;3.60;;;2.67;;
61344;SDS011;47216;42.656;23.232;2023-05-29T12:45:09;4.10;;;2.75;;
61344;SDS011;47216;42.656;23.232;2023-05-29T12:47:35;2.60;;;2.40;;
61344;SDS011;47216;42.656;23.232;2023-05-29T12:52:54;6.73;;;3.00;;
61344;SDS011;47216;42.656;23.232;2023-05-29T12:55:23;4.82;;;3.00;;
61344;SDS011;47216;42.656;23.232;2023-05-29T12:57:52;6.07;;;3.00;;
61344;SDS011;47216;42.656;23.232;2023-05-29T13:00:19;8.53;;;3.40;;
61344;SDS011;47216;42.656;23.232;2023-05-29T13:02:47;3.60;;;3.17;;
61344;SDS011;47216;42.656;23.232;2023-05-29T13:05:15;6.77;;;3.40;;
61344;SDS011;47216;42.656;23.232;2023-05-29T13:07:43;9.50;;;3.40;;
61344;SDS011;47216;42.656;23.232;2023-05-29T13:10:12;4.23;;;3.50;;
61344;SDS011;47216;42.656;23.232;2023-05-29T13:12:40;6.77;;;3.73;;
61344;SDS011;47216;42.656;23.232;2023-05-29T13:15:09;7.97;;;4.10;;
61344;SDS011;47216;42.656;23.232;2023-05-29T13:17:36;5.70;;;3.83;;
61344;SDS011;47216;42.656;23.232;2023-05-29T13:20:06;5.77;;;3.53;;
61344;SDS011;47216;42.656;23.232;2023-05-29T13:22:35;7.67;;;3.93;;
61344;SDS011;47216;42.656;23.232;2023-05-29T13:25:01;8.37;;;4.30;;
61344;SDS011;47216;42.656;23.232;2023-05-29T13:27:31;12.50;;;6.67;;
61344;SDS011;47216;42.656;23.232;2023-05-29T13:30:01;14.30;;;8.98;;
61344;SDS011;47216;42.656;23.232;2023-05-29T13:32:29;11.73;;;5.93;;
61344;SDS011;47216;42.656;23.232;2023-05-29T13:34:56;5.38;;;4.13;;
61344;SDS011;47216;42.656;23.232;2023-05-29T13:37:23;5.25;;;3.35;;
61344;SDS011;47216;42.656;23.232;2023-05-29T13:39:50;3.72;;;2.78;;
61344;SDS011;47216;42.656;23.232;2023-05-29T13:42:17;3.67;;;3.10;;
61344;SDS011;47216;42.656;23.232;2023-05-29T13:44:44;4.35;;;3.40;;
61344;SDS011;47216;42.656;23.232;2023-05-29T13:47:13;3.83;;;3.03;;
61344;SDS011;47216;42.656;23.232;2023-05-29T13:49:40;4.40;;;3.40;;
61344;SDS011;47216;42.656;23.232;2023-05-29T13:52:07;4.68;;;3.33;;
61344;SDS011;47216;42.656;23.232;2023-05-29T13:54:34;3.60;;;3.20;;
61344;SDS011;47216;42.656;23.232;2023-05-29T13:57:02;5.57;;;3.50;;
61344;SDS011;47216;42.656;23.232;2023-05-29T13:59:29;4.72;;;3.20;;
61344;SDS011;47216;42.656;23.232;2023-05-29T14:01:56;6.72;;;3.40;;
61344;SDS011;47216;42.656;23.232;2023-05-29T14:04:24;6.45;;;3.25;;
61344;SDS011;47216;42.656;23.232;2023-05-29T14:06:52;6.13;;;3.03;;
61344;SDS011;47216;42.656;23.232;2023-05-29T14:09:19;5.53;;;3.33;;
61344;SDS011;47216;42.656;23.232;2023-05-29T14:11:52;5.70;;;3.47;;
61344;SDS011;47216;42.656;23.232;2023-05-29T14:14:19;6.60;;;3.50;;
61344;SDS011;47216;42.656;23.232;2023-05-29T14:16:46;4.82;;;2.97;;
61344;SDS011;47216;42.656;23.232;2023-05-29T14:19:13;8.30;;;2.92;;
61344;SDS011;47216;42.656;23.232;2023-05-29T14:21:41;4.43;;;2.75;;
61344;SDS011;47216;42.656;23.232;2023-05-29T14:24:08;5.25;;;3.13;;
61344;SDS011;47216;42.656;23.232;2023-05-29T14:26:35;5.03;;;2.45;;
61344;SDS011;47216;42.656;23.232;2023-05-29T14:29:02;3.33;;;1.63;;
61344;SDS011;47216;42.656;23.232;2023-05-29T14:31:28;1.88;;;1.45;;
61344;SDS011;47216;42.656;23.232;2023-05-29T14:33:55;3.38;;;1.48;;
61344;SDS011;47216;42.656;23.232;2023-05-29T14:36:22;1.88;;;1.48;;
61344;SDS011;47216;42.656;23.232;2023-05-29T14:38:50;3.50;;;1.38;;
61344;SDS011;47216;42.656;23.232;2023-05-29T14:41:17;2.42;;;2.03;;
61344;SDS011;47216;42.656;23.232;2023-05-29T14:43:44;4.65;;;1.67;;
61344;SDS011;47216;42.656;23.232;2023-05-29T14:46:11;2.70;;;1.70;;
61344;SDS011;47216;42.656;23.232;2023-05-29T14:48:38;3.50;;;1.63;;
61344;SDS011;47216;42.656;23.232;2023-05-29T14:51:05;2.42;;;1.90;;
61344;SDS011;47216;42.656;23.232;2023-05-29T14:53:32;1.90;;;1.55;;
61344;SDS011;47216;42.656;23.232;2023-05-29T14:56:01;1.60;;;1.50;;